createdAt,value
2019-05-11T00:01:42.276Z,9.10
2019-05-11T00:04:09.224Z,9.10
2019-05-11T00:06:36.141Z,9.11
2019-05-11T00:09:05.341Z,8.96
2019-05-11T00:11:32.336Z,9.03
2019-05-11T00:13:59.281Z,9.01
2019-05-11T00:16:26.190Z,9.09
2019-05-11T00:18:53.138Z,8.99
2019-05-11T00:21:20.095Z,8.95
2019-05-11T00:23:47.045Z,8.96
2019-05-11T00:26:13.949Z,8.97
2019-05-11T00:28:40.890Z,9.12
2019-05-11T00:31:07.805Z,9.16
2019-05-11T00:33:34.774Z,9.07
2019-05-11T00:36:01.686Z,8.97
2019-05-11T00:38:28.774Z,9.11
2019-05-11T00:40:55.709Z,9.04
2019-05-11T00:43:22.660Z,9.07
2019-05-11T00:45:49.570Z,9.10
2019-05-11T00:48:16.524Z,9.26
2019-05-11T00:50:43.451Z,9.20
2019-05-11T00:53:10.406Z,9.01
2019-05-11T00:55:37.326Z,9.11
2019-05-11T00:58:04.262Z,9.09
2019-05-11T01:00:31.240Z,9.08
2019-05-11T01:02:58.161Z,9.12
2019-05-11T01:05:25.076Z,9.12
2019-05-11T01:07:52.122Z,9.25
2019-05-11T01:10:25.480Z,9.34
2019-05-11T01:12:47.999Z,9.27
2019-05-11T01:15:15.123Z,9.10
2019-05-11T01:17:42.040Z,8.99
2019-05-11T01:20:09.013Z,8.79
2019-05-11T01:22:36.183Z,8.81
2019-05-11T01:25:03.569Z,8.76
2019-05-11T01:27:30.479Z,8.91
2019-05-11T01:29:57.453Z,8.95
2019-05-11T01:32:24.406Z,8.91
2019-05-11T01:34:51.347Z,8.69
2019-05-11T01:37:18.282Z,8.66
2019-05-11T01:39:45.242Z,8.67
2019-05-11T01:42:12.217Z,8.70
2019-05-11T01:44:39.163Z,8.65
2019-05-11T01:47:06.092Z,8.72
2019-05-11T01:49:33.059Z,8.81
2019-05-11T01:51:59.977Z,8.90
2019-05-11T01:54:27.001Z,8.89
2019-05-11T01:56:53.963Z,9.05
2019-05-11T01:59:20.901Z,9.01
2019-05-11T02:01:47.874Z,8.94
2019-05-11T02:04:14.831Z,8.89
2019-05-11T02:06:41.748Z,8.89
2019-05-11T02:09:08.696Z,8.90
2019-05-11T02:11:35.610Z,9.00
2019-05-11T02:14:02.602Z,8.94
2019-05-11T02:16:29.518Z,8.95
2019-05-11T02:18:56.470Z,8.90
2019-05-11T02:21:23.386Z,8.95
2019-05-11T02:23:50.446Z,8.96
2019-05-11T02:26:17.370Z,8.92
2019-05-11T02:28:44.640Z,8.85
2019-05-11T02:31:11.573Z,8.96
2019-05-11T02:33:38.536Z,8.97
2019-05-11T02:36:05.514Z,8.91
2019-05-11T02:38:32.430Z,8.85
2019-05-11T02:40:59.391Z,8.89
2019-05-11T02:43:26.335Z,8.89
2019-05-11T02:45:53.289Z,8.90
2019-05-11T02:48:20.215Z,8.96
2019-05-11T02:50:47.580Z,8.91
2019-05-11T02:53:15.108Z,8.96
2019-05-11T02:55:43.887Z,9.22
2019-05-11T02:58:10.844Z,9.35
2019-05-11T03:00:39.977Z,9.25
2019-05-11T03:03:06.909Z,8.92
2019-05-11T03:05:33.867Z,8.82
2019-05-11T03:08:00.800Z,8.79
2019-05-11T03:10:27.784Z,8.77
2019-05-11T03:12:54.670Z,8.75
2019-05-11T03:15:21.633Z,8.77
2019-05-11T03:17:48.739Z,8.92
2019-05-11T03:20:15.684Z,8.85
2019-05-11T03:22:42.598Z,8.82
2019-05-11T03:25:09.588Z,8.90
2019-05-11T03:27:36.461Z,8.78
2019-05-11T03:30:03.919Z,8.94
2019-05-11T03:32:30.847Z,8.79
2019-05-11T03:34:57.815Z,8.83
2019-05-11T03:37:24.736Z,8.90
2019-05-11T03:39:51.698Z,8.85
2019-05-11T03:42:18.611Z,8.74
2019-05-11T03:44:45.564Z,8.80
2019-05-11T03:47:12.472Z,8.83
2019-05-11T03:49:39.425Z,8.68
2019-05-11T03:52:06.335Z,8.62
2019-05-11T03:54:33.283Z,8.74
2019-05-11T03:57:00.202Z,8.70
2019-05-11T03:59:27.134Z,8.61
2019-05-11T04:01:54.078Z,8.75
2019-05-11T04:04:21.021Z,8.61
2019-05-11T04:06:47.966Z,8.60
2019-05-11T04:09:14.885Z,8.50
2019-05-11T04:11:41.836Z,8.41
2019-05-11T04:14:08.805Z,8.43
2019-05-11T04:16:35.711Z,8.38
2019-05-11T04:19:02.645Z,8.29
2019-05-11T04:21:29.603Z,8.39
2019-05-11T04:23:56.531Z,8.37
2019-05-11T04:26:23.490Z,8.39
2019-05-11T04:28:50.448Z,8.40
2019-05-11T04:31:17.421Z,8.32
2019-05-11T04:33:44.322Z,8.51
2019-05-11T04:36:11.286Z,8.35
2019-05-11T04:38:38.211Z,8.33
2019-05-11T04:41:05.191Z,8.41
2019-05-11T04:43:32.122Z,8.51
2019-05-11T04:45:59.084Z,8.44
2019-05-11T04:48:26.008Z,8.55
2019-05-11T04:50:52.970Z,8.48
2019-05-11T04:53:19.964Z,8.52
2019-05-11T04:55:46.916Z,8.43
2019-05-11T04:58:13.852Z,8.61
2019-05-11T05:00:40.824Z,8.55
2019-05-11T05:03:07.743Z,8.50
2019-05-11T05:05:34.689Z,8.58
2019-05-11T05:08:09.481Z,8.64
2019-05-11T05:10:30.720Z,8.75
2019-05-11T05:13:09.691Z,8.71
2019-05-11T05:15:26.554Z,8.70
2019-05-11T05:17:53.525Z,8.63
2019-05-11T05:20:20.514Z,8.71
2019-05-11T05:22:47.503Z,8.76
2019-05-11T05:25:14.487Z,8.75
2019-05-11T05:27:41.433Z,8.78
2019-05-11T05:30:08.871Z,8.79
2019-05-11T05:32:35.978Z,8.73
2019-05-11T05:35:03.117Z,8.86
2019-05-11T05:37:30.065Z,8.87
2019-05-11T05:39:56.985Z,8.82
2019-05-11T05:42:23.952Z,8.86
2019-05-11T05:44:50.898Z,8.86
2019-05-11T05:47:17.860Z,9.09
2019-05-11T05:49:44.798Z,8.99
2019-05-11T05:52:12.397Z,8.98
2019-05-11T05:54:39.329Z,8.95
2019-05-11T05:57:06.274Z,8.85
2019-05-11T05:59:33.292Z,8.90
2019-05-11T06:02:00.268Z,8.90
2019-05-11T06:04:27.199Z,8.79
2019-05-11T06:06:54.157Z,8.88
2019-05-11T06:09:21.086Z,8.91
2019-05-11T06:11:48.053Z,9.05
2019-05-11T06:14:14.995Z,9.03
2019-05-11T06:16:42.008Z,9.05
2019-05-11T06:19:08.923Z,9.10
2019-05-11T06:21:35.873Z,9.04
2019-05-11T06:24:06.507Z,9.15
2019-05-11T06:26:31.859Z,9.21
2019-05-11T06:28:58.784Z,9.26
2019-05-11T06:31:25.752Z,9.26
2019-05-11T06:33:52.709Z,9.35
2019-05-11T06:36:19.655Z,9.41
2019-05-11T06:38:46.595Z,9.43
2019-05-11T06:41:13.596Z,9.49
2019-05-11T06:43:40.542Z,9.46
2019-05-11T06:46:07.478Z,9.58
2019-05-11T06:48:34.442Z,9.61
2019-05-11T06:51:01.398Z,9.62
2019-05-11T06:53:28.387Z,9.71
2019-05-11T06:55:55.306Z,9.73
2019-05-11T06:58:22.252Z,9.71
2019-05-11T07:00:49.187Z,9.79
2019-05-11T07:03:16.188Z,9.74
2019-05-11T07:05:43.398Z,9.75
2019-05-11T07:08:10.355Z,9.90
2019-05-11T07:10:37.293Z,9.94
2019-05-11T07:13:04.266Z,10.08
2019-05-11T07:15:31.194Z,10.01
2019-05-11T07:17:58.155Z,10.07
2019-05-11T07:20:25.147Z,10.16
2019-05-11T07:22:52.556Z,10.08
2019-05-11T07:25:19.482Z,10.18
2019-05-11T07:27:46.472Z,10.22
2019-05-11T07:30:13.519Z,10.14
2019-05-11T07:32:40.542Z,10.16
2019-05-11T07:35:08.395Z,10.22
2019-05-11T07:37:38.266Z,10.35
2019-05-11T07:40:04.989Z,10.32
2019-05-11T07:42:32.044Z,10.38
2019-05-11T07:44:58.920Z,10.24
2019-05-11T07:47:27.806Z,10.42
2019-05-11T07:49:54.734Z,10.37
2019-05-11T07:52:21.696Z,10.37
2019-05-11T07:54:52.596Z,10.29
2019-05-11T07:57:18.612Z,10.40
2019-05-11T07:59:45.824Z,10.49
2019-05-11T08:02:12.767Z,10.71
2019-05-11T08:04:39.715Z,10.92
2019-05-11T08:07:07.677Z,11.02
2019-05-11T08:09:34.810Z,11.29
2019-05-11T08:12:01.790Z,11.11
2019-05-11T08:14:28.964Z,11.15
2019-05-11T08:16:56.061Z,11.16
2019-05-11T08:19:23.033Z,11.31
2019-05-11T08:21:49.976Z,11.51
2019-05-11T08:24:18.039Z,11.34
2019-05-11T08:26:45.091Z,11.41
2019-05-11T08:29:12.043Z,11.27
2019-05-11T08:31:38.972Z,11.49
2019-05-11T08:34:05.933Z,11.35
2019-05-11T08:36:32.900Z,11.16
2019-05-11T08:38:59.863Z,11.16
2019-05-11T08:41:27.969Z,11.02
2019-05-11T08:43:55.200Z,10.90
2019-05-11T08:46:22.115Z,10.94
2019-05-11T08:48:49.072Z,11.03
2019-05-11T08:51:18.378Z,10.86
2019-05-11T08:53:44.908Z,10.86
2019-05-11T08:56:13.310Z,11.08
2019-05-11T08:58:40.402Z,11.29
2019-05-11T09:01:08.811Z,11.18
2019-05-11T09:03:35.999Z,11.28
2019-05-11T09:06:02.981Z,11.26
2019-05-11T09:08:29.952Z,11.39
2019-05-11T09:10:58.206Z,11.41
2019-05-11T09:13:27.703Z,11.23
2019-05-11T09:15:54.232Z,11.24
2019-05-11T09:18:21.184Z,11.13
2019-05-11T09:20:48.767Z,11.11
2019-05-11T09:23:32.952Z,10.85
2019-05-11T09:25:44.626Z,11.03
2019-05-11T09:28:11.564Z,10.74
2019-05-11T09:30:38.497Z,10.68
2019-05-11T09:33:05.457Z,10.77
2019-05-11T09:35:46.433Z,10.88
2019-05-11T09:38:01.258Z,10.90
2019-05-11T09:40:28.486Z,10.62
2019-05-11T09:42:58.333Z,10.75
2019-05-11T09:45:24.850Z,10.68
2019-05-11T09:47:51.857Z,10.76
2019-05-11T09:50:18.815Z,10.60
2019-05-11T09:52:45.762Z,10.54
2019-05-11T09:55:12.723Z,10.95
2019-05-11T09:57:39.691Z,10.73
2019-05-11T10:00:08.763Z,10.67
2019-05-11T10:02:38.327Z,10.81
2019-05-11T10:05:05.375Z,10.68
2019-05-11T10:07:32.664Z,10.58
2019-05-11T10:09:59.682Z,10.61
2019-05-11T10:12:28.602Z,10.71
2019-05-11T10:14:55.718Z,10.63
2019-05-11T10:17:22.721Z,10.65
2019-05-11T10:19:49.856Z,10.68
2019-05-11T10:22:18.924Z,10.83
2019-05-11T10:24:47.688Z,11.03
2019-05-11T10:27:15.281Z,11.07
2019-05-11T10:29:42.246Z,11.29
2019-05-11T10:32:09.213Z,11.61
2019-05-11T10:34:38.515Z,11.73
2019-05-11T10:37:05.141Z,11.88
2019-05-11T10:39:32.562Z,11.80
2019-05-11T10:41:59.769Z,11.82
2019-05-11T10:44:28.131Z,11.81
2019-05-11T10:46:55.178Z,11.87
2019-05-11T10:49:22.664Z,12.08
2019-05-11T10:51:49.905Z,11.84
2019-05-11T10:54:18.717Z,11.66
2019-05-11T10:56:48.022Z,11.68
2019-05-11T10:59:15.681Z,11.84
2019-05-11T11:01:42.744Z,12.04
2019-05-11T11:04:10.009Z,11.64
2019-05-11T11:06:38.652Z,11.80
2019-05-11T11:09:08.284Z,11.88
2019-05-11T11:11:35.511Z,11.44
2019-05-11T11:14:02.719Z,11.44
2019-05-11T11:16:37.005Z,11.12
2019-05-11T11:18:58.961Z,11.22
2019-05-11T11:21:27.910Z,11.44
2019-05-11T11:23:54.947Z,11.35
2019-05-11T11:26:21.945Z,11.40
2019-05-11T11:28:48.888Z,11.93
2019-05-11T11:31:18.385Z,12.25
2019-05-11T11:33:44.759Z,11.92
2019-05-11T11:36:11.903Z,12.03
2019-05-11T11:38:38.873Z,12.01
2019-05-11T11:41:07.667Z,12.42
2019-05-11T11:43:34.812Z,12.43
2019-05-11T11:46:01.794Z,12.57
2019-05-11T11:48:28.747Z,12.49
2019-05-11T11:50:55.722Z,12.65
2019-05-11T11:53:22.676Z,12.39
2019-05-11T11:55:50.157Z,12.24
2019-05-11T11:58:23.075Z,12.36
2019-05-11T12:00:48.178Z,12.23
2019-05-11T12:03:14.924Z,12.31
2019-05-11T12:05:41.883Z,12.17
2019-05-11T12:08:08.835Z,12.31
2019-05-11T12:10:37.810Z,11.82
2019-05-11T12:13:04.624Z,12.11
2019-05-11T12:15:31.600Z,11.98
2019-05-11T12:17:58.872Z,12.20
2019-05-11T12:20:28.478Z,11.75
2019-05-11T12:22:57.974Z,11.87
2019-05-11T12:25:24.847Z,11.61
2019-05-11T12:27:51.780Z,11.66
2019-05-11T12:30:18.920Z,11.74
2019-05-11T12:32:48.894Z,11.92
2019-05-11T12:35:20.280Z,11.47
2019-05-11T12:37:48.542Z,11.57
2019-05-11T12:40:18.031Z,11.55
2019-05-11T12:42:45.293Z,11.52
2019-05-11T12:45:12.920Z,11.68
2019-05-11T12:47:39.890Z,11.51
2019-05-11T12:50:08.021Z,11.45
2019-05-11T12:52:35.458Z,11.43
2019-05-11T12:55:02.749Z,11.35
2019-05-11T12:57:29.779Z,11.67
2019-05-11T12:59:58.250Z,11.68
2019-05-11T13:02:27.462Z,11.71
2019-05-11T13:04:54.308Z,11.94
2019-05-11T13:07:21.278Z,11.81
2019-05-11T13:09:48.634Z,11.71
2019-05-11T13:12:15.796Z,12.03
2019-05-11T13:14:42.724Z,11.94
2019-05-11T13:17:09.704Z,11.88
2019-05-11T13:19:38.465Z,11.95
2019-05-11T13:22:07.758Z,12.13
2019-05-11T13:24:34.346Z,12.08
2019-05-11T13:27:01.322Z,12.06
2019-05-11T13:29:28.817Z,12.02
2019-05-11T13:31:56.007Z,12.20
2019-05-11T13:34:22.949Z,12.18
2019-05-11T13:36:49.947Z,12.46
2019-05-11T13:39:18.131Z,12.52
2019-05-11T13:41:47.456Z,12.40
2019-05-11T13:44:14.112Z,12.53
2019-05-11T13:46:41.141Z,12.62
2019-05-11T13:49:08.535Z,12.32
2019-05-11T13:51:35.712Z,12.43
2019-05-11T13:54:02.666Z,12.42
2019-05-11T13:56:32.241Z,12.66
2019-05-11T13:59:06.865Z,12.61
2019-05-11T14:01:33.837Z,12.48
2019-05-11T14:04:00.788Z,12.64
2019-05-11T14:06:28.899Z,12.60
2019-05-11T14:08:58.207Z,12.83
2019-05-11T14:11:24.794Z,12.90
2019-05-11T14:13:51.745Z,13.18
2019-05-11T14:16:18.820Z,13.21
2019-05-11T14:18:45.863Z,13.08
2019-05-11T14:21:12.787Z,13.11
2019-05-11T14:23:39.743Z,13.02
2019-05-11T14:26:08.330Z,13.10
2019-05-11T14:28:37.196Z,13.34
2019-05-11T14:31:04.404Z,13.31
2019-05-11T14:33:31.352Z,13.45
2019-05-11T14:35:58.316Z,13.39
2019-05-11T14:38:25.279Z,13.37
2019-05-11T14:40:52.247Z,13.30
2019-05-11T14:43:23.418Z,13.45
2019-05-11T14:45:50.394Z,13.56
2019-05-11T14:48:25.914Z,13.48
2019-05-11T14:50:48.737Z,13.59
2019-05-11T14:53:15.217Z,13.72
2019-05-11T14:55:42.143Z,13.73
2019-05-11T14:58:09.107Z,13.48
2019-05-11T15:00:36.963Z,13.38
2019-05-11T15:03:04.899Z,13.27
2019-05-11T15:05:31.856Z,13.40
2019-05-11T15:07:58.915Z,13.61
2019-05-11T15:10:27.768Z,13.70
2019-05-11T15:12:54.810Z,13.76
2019-05-11T15:15:21.746Z,14.01
2019-05-11T15:17:49.472Z,13.83
2019-05-11T15:20:17.693Z,13.96
2019-05-11T15:22:45.056Z,13.89
2019-05-11T15:25:13.625Z,13.92
2019-05-11T15:27:40.582Z,13.98
2019-05-11T15:30:08.060Z,14.02
2019-05-11T15:32:35.091Z,13.85
2019-05-11T15:35:02.089Z,13.92
2019-05-11T15:37:29.025Z,14.10
2019-05-11T15:40:11.613Z,13.99
2019-05-11T15:42:38.575Z,14.45
2019-05-11T15:45:07.926Z,14.50
2019-05-11T15:47:34.508Z,14.83
2019-05-11T15:50:01.485Z,15.00
2019-05-11T15:52:28.403Z,15.13
2019-05-11T15:54:55.367Z,14.68
2019-05-11T15:57:22.279Z,14.16
2019-05-11T15:59:49.266Z,14.26
2019-05-11T16:02:17.990Z,14.16
2019-05-11T16:04:45.056Z,13.97
2019-05-11T16:07:11.992Z,13.90
2019-05-11T16:09:38.940Z,13.75
2019-05-11T16:12:05.859Z,14.00
2019-05-11T16:14:32.955Z,14.20
2019-05-11T16:16:59.907Z,14.24
2019-05-11T16:19:28.109Z,14.27
2019-05-11T16:21:55.249Z,14.10
2019-05-11T16:24:22.205Z,14.23
2019-05-11T16:26:49.655Z,14.13
2019-05-11T16:29:18.978Z,14.30
2019-05-11T16:31:45.697Z,14.15
2019-05-11T16:34:12.678Z,14.16
2019-05-11T16:36:39.605Z,14.02
2019-05-11T16:39:10.331Z,14.28
2019-05-11T16:41:38.240Z,14.21
2019-05-11T16:44:07.693Z,14.07
2019-05-11T16:46:34.736Z,14.05
2019-05-11T16:49:01.707Z,14.27
2019-05-11T16:51:28.782Z,14.22
2019-05-11T16:53:55.735Z,14.04
2019-05-11T16:56:22.668Z,14.18
2019-05-11T16:58:50.424Z,14.35
2019-05-11T17:01:18.860Z,14.34
2019-05-11T17:03:48.090Z,14.25
2019-05-11T17:06:14.890Z,14.34
2019-05-11T17:08:41.831Z,14.51
2019-05-11T17:11:08.804Z,14.35
2019-05-11T17:13:37.772Z,14.18
2019-05-11T17:16:04.587Z,14.25
2019-05-11T17:18:31.538Z,14.14
2019-05-11T17:20:58.713Z,14.06
2019-05-11T17:23:25.973Z,13.91
2019-05-11T17:25:53.030Z,13.57
2019-05-11T17:28:19.941Z,13.68
2019-05-11T17:30:48.108Z,13.57
2019-05-11T17:33:17.435Z,13.55
2019-05-11T17:35:44.110Z,13.60
2019-05-11T17:38:11.120Z,13.67
2019-05-11T17:40:38.129Z,13.59
2019-05-11T17:43:05.085Z,13.43
2019-05-11T17:45:32.068Z,13.54
2019-05-11T17:47:59.013Z,13.64
2019-05-11T17:50:28.045Z,13.44
2019-05-11T17:52:54.862Z,13.35
2019-05-11T17:55:21.862Z,13.36
2019-05-11T17:57:50.460Z,13.30
2019-05-11T18:00:20.093Z,13.27
2019-05-11T18:02:49.081Z,13.10
2019-05-11T18:05:17.868Z,13.09
2019-05-11T18:07:45.650Z,13.05
2019-05-11T18:10:12.703Z,12.93
2019-05-11T18:12:40.045Z,12.88
2019-05-11T18:15:08.231Z,12.76
2019-05-11T18:17:35.485Z,12.74
2019-05-11T18:20:14.744Z,12.59
2019-05-11T18:22:31.840Z,12.57
2019-05-11T18:24:58.800Z,12.45
2019-05-11T18:27:27.714Z,12.35
2019-05-11T18:29:54.597Z,12.29
2019-05-11T18:32:21.536Z,12.28
2019-05-11T18:34:48.592Z,12.18
2019-05-11T18:37:15.565Z,12.17
2019-05-11T18:39:42.492Z,12.13
2019-05-11T18:42:09.474Z,12.11
2019-05-11T18:44:37.958Z,12.08
2019-05-11T18:47:05.431Z,11.86
2019-05-11T18:49:32.363Z,11.68
2019-05-11T18:51:59.340Z,11.61
2019-05-11T18:54:27.712Z,11.61
2019-05-11T18:56:54.848Z,11.60
2019-05-11T18:59:21.794Z,11.49
2019-05-11T19:01:48.800Z,11.39
2019-05-11T19:04:18.202Z,11.33
2019-05-11T19:06:44.581Z,11.26
2019-05-11T19:09:11.519Z,11.28
2019-05-11T19:11:38.626Z,11.13
2019-05-11T19:14:08.534Z,11.11
2019-05-11T19:16:35.885Z,10.90
2019-05-11T19:19:02.815Z,10.82
2019-05-11T19:21:29.866Z,10.79
2019-05-11T19:23:58.119Z,10.71
2019-05-11T19:26:25.162Z,10.70
2019-05-11T19:28:52.077Z,10.68
2019-05-11T19:31:19.232Z,10.53
2019-05-11T19:33:48.733Z,10.47
2019-05-11T19:36:15.037Z,10.39
2019-05-11T19:38:42.020Z,10.36
2019-05-11T19:41:09.845Z,10.23
2019-05-11T19:43:38.133Z,10.26
2019-05-11T19:46:05.248Z,10.25
2019-05-11T19:48:32.192Z,10.24
2019-05-11T19:51:07.478Z,10.15
2019-05-11T19:53:28.227Z,10.12
2019-05-11T19:55:55.306Z,10.12
2019-05-11T19:58:22.227Z,10.07
2019-05-11T20:00:49.155Z,9.87
2019-05-11T20:03:18.295Z,9.97
2019-05-11T20:05:44.958Z,9.91
2019-05-11T20:08:11.958Z,9.78
2019-05-11T20:10:38.897Z,9.75
2019-05-11T20:13:07.971Z,9.75
2019-05-11T20:15:35.169Z,9.73
2019-05-11T20:18:02.257Z,9.70
2019-05-11T20:20:29.192Z,9.65
2019-05-11T20:22:58.276Z,9.53
2019-05-11T20:25:24.984Z,9.41
2019-05-11T20:27:51.942Z,9.50
2019-05-11T20:30:19.352Z,9.47
2019-05-11T20:32:48.352Z,9.46
2019-05-11T20:35:15.475Z,9.43
2019-05-11T20:37:42.440Z,9.33
2019-05-11T20:40:10.089Z,9.22
2019-05-11T20:42:38.085Z,9.29
2019-05-11T20:45:07.591Z,9.19
2019-05-11T20:47:33.953Z,9.21
2019-05-11T20:50:00.889Z,9.16
2019-05-11T20:52:28.425Z,9.05
2019-05-11T20:54:58.205Z,9.13
2019-05-11T20:57:24.446Z,9.11
2019-05-11T20:59:51.376Z,9.13
2019-05-11T21:02:18.439Z,9.05
2019-05-11T21:04:45.410Z,9.01
2019-05-11T21:07:12.438Z,8.78
2019-05-11T21:09:39.398Z,8.75
2019-05-11T21:12:08.135Z,8.85
2019-05-11T21:14:35.199Z,8.82
2019-05-11T21:17:02.116Z,8.69
2019-05-11T21:19:29.126Z,8.65
2019-05-11T21:21:58.768Z,8.66
2019-05-11T21:24:28.102Z,8.57
2019-05-11T21:26:55.152Z,8.41
2019-05-11T21:29:22.169Z,8.41
2019-05-11T21:31:49.107Z,8.34
2019-05-11T21:34:18.159Z,8.33
2019-05-11T21:36:44.978Z,8.32
2019-05-11T21:39:11.949Z,8.19
2019-05-11T21:41:38.912Z,8.21
2019-05-11T21:44:07.789Z,8.13
2019-05-11T21:46:34.839Z,8.15
2019-05-11T21:49:01.831Z,8.04
2019-05-11T21:51:28.848Z,8.13
2019-05-11T21:53:57.854Z,8.17
2019-05-11T21:56:24.993Z,8.15
2019-05-11T21:58:53.710Z,7.86
2019-05-11T22:01:20.794Z,7.85
2019-05-11T22:03:48.046Z,7.85
2019-05-11T22:06:15.123Z,7.86
2019-05-11T22:08:42.132Z,7.85
2019-05-11T22:11:09.052Z,7.86
2019-05-11T22:13:37.880Z,7.72
2019-05-11T22:16:04.872Z,7.70
2019-05-11T22:18:31.854Z,7.74
2019-05-11T22:20:58.775Z,7.70
2019-05-11T22:23:28.021Z,7.72
2019-05-11T22:25:54.608Z,7.78
2019-05-11T22:28:21.601Z,7.56
2019-05-11T22:30:48.527Z,7.64
2019-05-11T22:33:17.658Z,7.55
2019-05-11T22:35:44.313Z,7.56
2019-05-11T22:38:11.237Z,7.48
2019-05-11T22:40:38.533Z,7.47
2019-05-11T22:43:05.570Z,7.48
2019-05-11T22:45:32.572Z,7.47
2019-05-11T22:48:02.532Z,7.47
2019-05-11T22:50:29.516Z,7.41
2019-05-11T22:52:56.435Z,7.36
2019-05-11T22:55:27.713Z,7.41
2019-05-11T22:57:54.753Z,7.40
2019-05-11T23:00:39.590Z,7.25
2019-05-11T23:03:07.699Z,7.24
2019-05-11T23:05:35.373Z,7.41
2019-05-11T23:08:02.344Z,7.28
2019-05-11T23:10:29.308Z,7.29
2019-05-11T23:12:56.239Z,7.15
2019-05-11T23:15:23.218Z,7.07
2019-05-11T23:17:50.151Z,6.98
2019-05-11T23:20:17.231Z,6.91
2019-05-11T23:22:57.058Z,7.03
2019-05-11T23:25:18.485Z,6.85
2019-05-11T23:27:45.289Z,6.90
2019-05-11T23:30:12.719Z,6.98
2019-05-11T23:32:39.617Z,6.79
2019-05-11T23:35:08.384Z,6.62
2019-05-11T23:37:35.517Z,6.69
2019-05-11T23:40:02.527Z,6.67
2019-05-11T23:42:30.983Z,6.74
2019-05-11T23:44:58.661Z,6.71
2019-05-11T23:47:25.659Z,6.66
2019-05-11T23:49:52.622Z,6.65
2019-05-11T23:52:19.554Z,6.66
2019-05-11T23:54:48.474Z,6.66
2019-05-11T23:57:15.545Z,6.60
2019-05-11T23:59:42.528Z,6.27
